createdAt,value
2022-12-16T00:04:51.700Z,91.10
2022-12-16T00:15:04.773Z,88.60
2022-12-16T00:25:17.709Z,84.40
2022-12-16T00:35:30.768Z,86.10
2022-12-16T00:45:43.820Z,83.20
2022-12-16T00:55:56.769Z,91.70
2022-12-16T01:06:09.745Z,84.20
2022-12-16T01:16:22.815Z,75.60
2022-12-16T01:26:35.781Z,84.40
2022-12-16T01:36:48.779Z,66.10
2022-12-16T01:47:03.771Z,72.90
2022-12-16T01:57:20.801Z,78.10
2022-12-16T02:07:33.797Z,73.60
2022-12-16T02:18:06.816Z,73.40
2022-12-16T02:28:33.773Z,68.40
2022-12-16T02:39:15.819Z,74.10
2022-12-16T02:49:28.824Z,74.60
2022-12-16T03:00:14.829Z,75.10
2022-12-16T03:10:36.808Z,73.50
2022-12-16T03:21:01.816Z,76.00
2022-12-16T03:31:35.837Z,74.30
2022-12-16T03:41:50.860Z,71.10
2022-12-16T03:52:03.865Z,75.60
2022-12-16T04:02:17.058Z,75.20
2022-12-16T04:12:48.833Z,68.60
2022-12-16T04:23:19.893Z,68.00
2022-12-16T04:33:50.857Z,85.90
2022-12-16T04:44:21.889Z,97.00
2022-12-16T04:54:52.862Z,119.40
2022-12-16T05:05:23.900Z,87.10
2022-12-16T05:15:53.932Z,75.20
2022-12-16T05:26:24.941Z,58.20
2022-12-16T05:36:55.892Z,52.90
2022-12-16T05:47:26.983Z,86.50
2022-12-16T05:57:57.910Z,66.40
2022-12-16T06:08:28.943Z,70.10
2022-12-16T06:18:59.912Z,57.80
2022-12-16T06:29:30.952Z,53.20
2022-12-16T06:40:01.935Z,60.10
2022-12-16T06:50:33.001Z,52.70
2022-12-16T07:01:03.995Z,55.90
2022-12-16T07:11:34.939Z,58.40
2022-12-16T07:22:11.991Z,55.40
2022-12-16T07:32:42.959Z,61.30
2022-12-16T07:43:21.023Z,61.20
2022-12-16T07:53:52.944Z,76.60
2022-12-16T08:04:24.011Z,65.40
2022-12-16T08:14:54.980Z,63.70
2022-12-16T08:25:27.006Z,70.90
2022-12-16T08:35:58.009Z,78.80
2022-12-16T08:46:28.143Z,74.75
2022-12-16T08:57:00.012Z,106.00
2022-12-16T09:07:39.049Z,57.50
2022-12-16T09:18:10.996Z,77.30
2022-12-16T09:28:42.064Z,85.00
2022-12-16T09:39:13.084Z,75.70
2022-12-16T09:50:05.088Z,65.60
2022-12-16T10:00:47.032Z,71.60
2022-12-16T10:11:18.066Z,61.40
2022-12-16T10:22:01.064Z,65.40
2022-12-16T10:32:56.117Z,93.10
2022-12-16T10:43:40.044Z,64.10
2022-12-16T10:54:13.094Z,72.00
2022-12-16T11:04:55.788Z,64.20
2022-12-16T11:15:29.837Z,62.50
2022-12-16T11:26:01.111Z,67.70
2022-12-16T11:36:47.153Z,74.40
2022-12-16T11:47:17.123Z,70.50
2022-12-16T11:57:52.146Z,70.80
2022-12-16T12:08:33.093Z,69.50
2022-12-16T12:19:17.143Z,79.70
2022-12-16T12:30:16.372Z,76.10
2022-12-16T12:40:51.128Z,78.30
2022-12-16T12:51:39.173Z,68.00
2022-12-16T13:02:12.265Z,79.80
2022-12-16T13:12:52.157Z,67.20
2022-12-16T13:23:54.177Z,89.30
2022-12-16T13:34:32.176Z,68.40
2022-12-16T13:45:09.189Z,71.30
2022-12-16T13:55:45.194Z,70.30
2022-12-16T14:06:17.214Z,79.60
2022-12-16T14:17:04.257Z,87.80
2022-12-16T14:27:44.218Z,90.40
2022-12-16T14:38:15.215Z,95.90
2022-12-16T14:48:58.246Z,91.50
2022-12-16T14:59:40.208Z,100.50
2022-12-16T15:10:15.275Z,104.80
2022-12-16T15:20:56.214Z,117.90
2022-12-16T15:31:27.335Z,102.80
2022-12-16T15:42:00.254Z,104.50
2022-12-16T15:52:56.269Z,111.20
2022-12-16T16:03:27.350Z,102.70
2022-12-16T16:14:05.011Z,122.40
2022-12-16T16:24:38.293Z,106.10
2022-12-16T16:35:09.283Z,114.50
2022-12-16T16:45:40.267Z,116.10
2022-12-16T16:56:15.165Z,133.30
2022-12-16T17:06:51.272Z,109.50
2022-12-16T17:17:22.313Z,119.90
2022-12-16T17:27:52.423Z,123.60
2022-12-16T17:38:23.338Z,100.30
2022-12-16T17:48:54.319Z,103.30
2022-12-16T17:59:25.321Z,110.70
2022-12-16T18:09:56.317Z,109.60
2022-12-16T18:20:34.356Z,121.30
2022-12-16T18:31:05.400Z,108.80
2022-12-16T18:41:45.365Z,115.00
2022-12-16T18:52:16.359Z,109.70
2022-12-16T19:02:48.516Z,107.00
2022-12-16T19:13:24.364Z,112.30
2022-12-16T19:24:02.377Z,112.40
2022-12-16T19:34:33.380Z,106.80
2022-12-16T19:45:04.441Z,93.40
2022-12-16T19:55:35.405Z,94.80
2022-12-16T20:06:06.409Z,109.40
2022-12-16T20:16:44.382Z,111.60
2022-12-16T20:27:15.450Z,123.90
2022-12-16T20:37:46.429Z,106.60
2022-12-16T20:48:19.427Z,104.20
2022-12-16T20:58:49.424Z,116.60
2022-12-16T21:09:20.413Z,134.50
2022-12-16T21:19:51.464Z,129.60
2022-12-16T21:30:22.416Z,124.50
2022-12-16T21:40:53.452Z,134.00
2022-12-16T21:51:27.436Z,134.50
2022-12-16T22:01:58.565Z,138.10
2022-12-16T22:12:29.453Z,129.00
2022-12-16T22:23:07.516Z,152.60
2022-12-16T22:33:39.484Z,134.90
2022-12-16T22:44:11.494Z,134.10
2022-12-16T22:54:42.505Z,142.10
2022-12-16T23:05:14.525Z,131.90
2022-12-16T23:15:45.555Z,118.80
2022-12-16T23:26:24.545Z,114.50
2022-12-16T23:36:55.503Z,118.60
2022-12-16T23:47:27.564Z,113.50
2022-12-16T23:57:58.488Z,111.80
